sensor_id;sensor_type;location;lat;lon;timestamp;temperature;humidity
26541;DHT22;14206;50.202;10.948;2023-12-28T00:02:12;4.30;96.60
26541;DHT22;14206;50.202;10.948;2023-12-28T00:04:40;4.30;96.60
26541;DHT22;14206;50.202;10.948;2023-12-28T00:07:07;4.20;96.60
26541;DHT22;14206;50.202;10.948;2023-12-28T00:09:34;4.20;96.60
26541;DHT22;14206;50.202;10.948;2023-12-28T00:12:02;4.20;96.60
26541;DHT22;14206;50.202;10.948;2023-12-28T00:14:29;4.20;96.60
26541;DHT22;14206;50.202;10.948;2023-12-28T00:16:56;4.20;96.60
26541;DHT22;14206;50.202;10.948;2023-12-28T00:19:22;4.10;96.60
26541;DHT22;14206;50.202;10.948;2023-12-28T00:21:50;4.10;96.60
26541;DHT22;14206;50.202;10.948;2023-12-28T00:24:19;4.10;96.60
26541;DHT22;14206;50.202;10.948;2023-12-28T00:26:46;4.10;96.60
26541;DHT22;14206;50.202;10.948;2023-12-28T00:29:13;4.10;96.60
26541;DHT22;14206;50.202;10.948;2023-12-28T00:31:40;4.00;96.60
26541;DHT22;14206;50.202;10.948;2023-12-28T00:34:08;4.00;96.60
26541;DHT22;14206;50.202;10.948;2023-12-28T00:36:38;3.90;96.60
26541;DHT22;14206;50.202;10.948;2023-12-28T00:39:05;3.90;96.60
26541;DHT22;14206;50.202;10.948;2023-12-28T00:41:32;3.90;96.60
26541;DHT22;14206;50.202;10.948;2023-12-28T00:43:59;3.90;96.60
26541;DHT22;14206;50.202;10.948;2023-12-28T00:46:28;3.80;96.60
26541;DHT22;14206;50.202;10.948;2023-12-28T00:48:55;3.80;96.60
26541;DHT22;14206;50.202;10.948;2023-12-28T00:51:22;3.70;96.60
26541;DHT22;14206;50.202;10.948;2023-12-28T00:53:49;3.70;96.60
26541;DHT22;14206;50.202;10.948;2023-12-28T00:56:15;3.60;96.60
26541;DHT22;14206;50.202;10.948;2023-12-28T00:58:43;3.50;96.60
26541;DHT22;14206;50.202;10.948;2023-12-28T01:01:10;3.40;96.60
26541;DHT22;14206;50.202;10.948;2023-12-28T01:03:39;3.40;96.60
26541;DHT22;14206;50.202;10.948;2023-12-28T01:06:06;3.40;96.60
26541;DHT22;14206;50.202;10.948;2023-12-28T01:08:33;3.40;96.60
26541;DHT22;14206;50.202;10.948;2023-12-28T01:11:01;3.30;96.60
26541;DHT22;14206;50.202;10.948;2023-12-28T01:13:29;3.30;96.60
26541;DHT22;14206;50.202;10.948;2023-12-28T01:15:56;3.30;96.60
26541;DHT22;14206;50.202;10.948;2023-12-28T01:18:23;3.30;96.60
26541;DHT22;14206;50.202;10.948;2023-12-28T01:20:51;3.30;96.60
26541;DHT22;14206;50.202;10.948;2023-12-28T01:23:18;3.30;96.60
26541;DHT22;14206;50.202;10.948;2023-12-28T01:25:45;3.30;96.60
26541;DHT22;14206;50.202;10.948;2023-12-28T01:28:11;3.30;96.60
26541;DHT22;14206;50.202;10.948;2023-12-28T01:30:39;3.30;96.60
26541;DHT22;14206;50.202;10.948;2023-12-28T01:33:08;3.30;96.60
26541;DHT22;14206;50.202;10.948;2023-12-28T01:35:36;3.20;96.60
26541;DHT22;14206;50.202;10.948;2023-12-28T01:38:03;3.20;96.60
26541;DHT22;14206;50.202;10.948;2023-12-28T01:40:30;3.20;96.60
26541;DHT22;14206;50.202;10.948;2023-12-28T01:42:57;3.20;96.60
26541;DHT22;14206;50.202;10.948;2023-12-28T01:45:24;3.30;96.60
26541;DHT22;14206;50.202;10.948;2023-12-28T01:47:53;3.30;96.60
26541;DHT22;14206;50.202;10.948;2023-12-28T01:50:27;3.30;96.60
26541;DHT22;14206;50.202;10.948;2023-12-28T01:52:55;3.30;96.60
26541;DHT22;14206;50.202;10.948;2023-12-28T01:55:24;3.30;96.60
26541;DHT22;14206;50.202;10.948;2023-12-28T01:57:51;3.30;96.60
26541;DHT22;14206;50.202;10.948;2023-12-28T02:00:23;3.20;96.60
26541;DHT22;14206;50.202;10.948;2023-12-28T02:02:51;3.20;96.60
26541;DHT22;14206;50.202;10.948;2023-12-28T02:05:19;3.20;96.60
26541;DHT22;14206;50.202;10.948;2023-12-28T02:07:46;3.20;96.60
26541;DHT22;14206;50.202;10.948;2023-12-28T02:10:13;3.20;96.60
26541;DHT22;14206;50.202;10.948;2023-12-28T02:12:40;3.10;96.60
26541;DHT22;14206;50.202;10.948;2023-12-28T02:15:07;3.10;96.60
26541;DHT22;14206;50.202;10.948;2023-12-28T02:17:38;3.10;96.60
26541;DHT22;14206;50.202;10.948;2023-12-28T02:20:08;3.10;96.60
26541;DHT22;14206;50.202;10.948;2023-12-28T02:22:36;3.10;96.60
26541;DHT22;14206;50.202;10.948;2023-12-28T02:25:10;3.10;96.60
26541;DHT22;14206;50.202;10.948;2023-12-28T02:27:44;3.10;96.60
26541;DHT22;14206;50.202;10.948;2023-12-28T02:30:17;3.10;96.60
26541;DHT22;14206;50.202;10.948;2023-12-28T02:32:52;3.00;96.60
26541;DHT22;14206;50.202;10.948;2023-12-28T02:37:55;3.00;96.60
26541;DHT22;14206;50.202;10.948;2023-12-28T02:40:23;3.00;96.60
26541;DHT22;14206;50.202;10.948;2023-12-28T02:42:52;3.20;96.60
26541;DHT22;14206;50.202;10.948;2023-12-28T02:45:19;3.40;96.60
26541;DHT22;14206;50.202;10.948;2023-12-28T02:47:46;3.60;96.60
26541;DHT22;14206;50.202;10.948;2023-12-28T02:50:13;3.80;96.60
26541;DHT22;14206;50.202;10.948;2023-12-28T02:52:40;3.90;96.60
26541;DHT22;14206;50.202;10.948;2023-12-28T02:55:07;4.10;96.60
26541;DHT22;14206;50.202;10.948;2023-12-28T02:57:34;4.20;96.60
26541;DHT22;14206;50.202;10.948;2023-12-28T03:00:05;4.30;96.60
26541;DHT22;14206;50.202;10.948;2023-12-28T03:02:32;4.40;96.60
26541;DHT22;14206;50.202;10.948;2023-12-28T03:04:59;4.50;96.60
26541;DHT22;14206;50.202;10.948;2023-12-28T03:07:26;4.60;96.60
26541;DHT22;14206;50.202;10.948;2023-12-28T03:09:53;4.70;96.60
26541;DHT22;14206;50.202;10.948;2023-12-28T03:12:20;4.80;96.60
26541;DHT22;14206;50.202;10.948;2023-12-28T03:14:48;4.90;96.60
26541;DHT22;14206;50.202;10.948;2023-12-28T03:17:15;5.00;96.60
26541;DHT22;14206;50.202;10.948;2023-12-28T03:19:42;5.10;96.60
26541;DHT22;14206;50.202;10.948;2023-12-28T03:22:09;5.20;96.60
26541;DHT22;14206;50.202;10.948;2023-12-28T03:24:39;5.30;96.60
26541;DHT22;14206;50.202;10.948;2023-12-28T03:27:06;5.40;96.60
26541;DHT22;14206;50.202;10.948;2023-12-28T03:29:33;5.50;96.60
26541;DHT22;14206;50.202;10.948;2023-12-28T03:32:00;5.60;96.60
26541;DHT22;14206;50.202;10.948;2023-12-28T03:34:27;5.60;96.60
26541;DHT22;14206;50.202;10.948;2023-12-28T03:36:56;5.70;96.60
26541;DHT22;14206;50.202;10.948;2023-12-28T03:39:24;5.80;96.60
26541;DHT22;14206;50.202;10.948;2023-12-28T03:41:51;5.80;96.60
26541;DHT22;14206;50.202;10.948;2023-12-28T03:44:20;5.90;96.60
26541;DHT22;14206;50.202;10.948;2023-12-28T03:46:48;6.00;96.60
26541;DHT22;14206;50.202;10.948;2023-12-28T03:49:19;6.00;96.40
26541;DHT22;14206;50.202;10.948;2023-12-28T03:51:50;6.00;96.50
26541;DHT22;14206;50.202;10.948;2023-12-28T03:54:17;6.00;96.30
26541;DHT22;14206;50.202;10.948;2023-12-28T03:56:45;6.10;95.90
26541;DHT22;14206;50.202;10.948;2023-12-28T03:59:12;6.10;95.70
26541;DHT22;14206;50.202;10.948;2023-12-28T04:01:42;6.10;95.30
26541;DHT22;14206;50.202;10.948;2023-12-28T04:04:10;6.10;95.30
26541;DHT22;14206;50.202;10.948;2023-12-28T04:06:38;6.20;94.80
26541;DHT22;14206;50.202;10.948;2023-12-28T04:09:05;6.20;94.10
26541;DHT22;14206;50.202;10.948;2023-12-28T04:11:32;6.30;93.80
26541;DHT22;14206;50.202;10.948;2023-12-28T04:13:59;6.40;93.70
26541;DHT22;14206;50.202;10.948;2023-12-28T04:16:26;6.40;93.70
26541;DHT22;14206;50.202;10.948;2023-12-28T04:18:53;6.50;93.40
26541;DHT22;14206;50.202;10.948;2023-12-28T04:21:21;6.50;93.20
26541;DHT22;14206;50.202;10.948;2023-12-28T04:23:48;6.50;93.20
26541;DHT22;14206;50.202;10.948;2023-12-28T04:26:18;6.50;93.60
26541;DHT22;14206;50.202;10.948;2023-12-28T04:28:46;6.60;93.50
26541;DHT22;14206;50.202;10.948;2023-12-28T04:31:13;6.60;93.20
26541;DHT22;14206;50.202;10.948;2023-12-28T04:33:40;6.60;93.20
26541;DHT22;14206;50.202;10.948;2023-12-28T04:36:07;6.60;93.60
26541;DHT22;14206;50.202;10.948;2023-12-28T04:38:35;6.70;94.00
26541;DHT22;14206;50.202;10.948;2023-12-28T04:41:02;6.70;92.50
26541;DHT22;14206;50.202;10.948;2023-12-28T04:43:29;6.70;93.50
26541;DHT22;14206;50.202;10.948;2023-12-28T04:45:56;6.80;93.00
26541;DHT22;14206;50.202;10.948;2023-12-28T04:48:25;6.80;92.30
26541;DHT22;14206;50.202;10.948;2023-12-28T04:50:53;6.80;91.70
26541;DHT22;14206;50.202;10.948;2023-12-28T04:53:20;6.80;91.30
26541;DHT22;14206;50.202;10.948;2023-12-28T04:55:47;6.80;91.40
26541;DHT22;14206;50.202;10.948;2023-12-28T04:58:14;6.80;90.80
26541;DHT22;14206;50.202;10.948;2023-12-28T05:00:41;6.80;91.10
26541;DHT22;14206;50.202;10.948;2023-12-28T05:03:09;6.80;91.40
26541;DHT22;14206;50.202;10.948;2023-12-28T05:05:36;6.80;91.10
26541;DHT22;14206;50.202;10.948;2023-12-28T05:08:04;6.80;90.70
26541;DHT22;14206;50.202;10.948;2023-12-28T05:10:31;6.80;90.90
26541;DHT22;14206;50.202;10.948;2023-12-28T05:12:57;6.80;90.50
26541;DHT22;14206;50.202;10.948;2023-12-28T05:15:28;6.90;90.30
26541;DHT22;14206;50.202;10.948;2023-12-28T05:17:55;6.90;90.30
26541;DHT22;14206;50.202;10.948;2023-12-28T05:20:23;6.90;90.00
26541;DHT22;14206;50.202;10.948;2023-12-28T05:22:50;7.00;90.10
26541;DHT22;14206;50.202;10.948;2023-12-28T05:25:17;7.00;90.80
26541;DHT22;14206;50.202;10.948;2023-12-28T05:27:44;7.00;90.60
26541;DHT22;14206;50.202;10.948;2023-12-28T05:30:11;7.00;90.70
26541;DHT22;14206;50.202;10.948;2023-12-28T05:32:39;7.00;90.70
26541;DHT22;14206;50.202;10.948;2023-12-28T05:35:06;6.90;91.10
26541;DHT22;14206;50.202;10.948;2023-12-28T05:37:34;6.90;91.20
26541;DHT22;14206;50.202;10.948;2023-12-28T05:40:01;6.90;92.00
26541;DHT22;14206;50.202;10.948;2023-12-28T05:42:28;6.90;91.70
26541;DHT22;14206;50.202;10.948;2023-12-28T05:44:55;6.90;92.10
26541;DHT22;14206;50.202;10.948;2023-12-28T05:47:22;7.00;92.00
26541;DHT22;14206;50.202;10.948;2023-12-28T05:49:49;7.10;91.20
26541;DHT22;14206;50.202;10.948;2023-12-28T05:52:16;7.10;90.80
26541;DHT22;14206;50.202;10.948;2023-12-28T05:54:46;7.20;90.90
26541;DHT22;14206;50.202;10.948;2023-12-28T05:57:14;7.20;90.80
26541;DHT22;14206;50.202;10.948;2023-12-28T05:59:41;7.20;91.40
26541;DHT22;14206;50.202;10.948;2023-12-28T06:02:08;7.30;91.80
26541;DHT22;14206;50.202;10.948;2023-12-28T06:04:35;7.30;92.40
26541;DHT22;14206;50.202;10.948;2023-12-28T06:07:06;7.30;92.90
26541;DHT22;14206;50.202;10.948;2023-12-28T06:09:32;7.30;93.50
26541;DHT22;14206;50.202;10.948;2023-12-28T06:12:00;7.40;93.10
26541;DHT22;14206;50.202;10.948;2023-12-28T06:14:27;7.40;92.60
26541;DHT22;14206;50.202;10.948;2023-12-28T06:16:54;7.40;92.40
26541;DHT22;14206;50.202;10.948;2023-12-28T06:19:21;7.50;91.60
26541;DHT22;14206;50.202;10.948;2023-12-28T06:21:49;7.50;91.50
26541;DHT22;14206;50.202;10.948;2023-12-28T06:24:16;7.60;91.30
26541;DHT22;14206;50.202;10.948;2023-12-28T06:26:44;7.60;91.60
26541;DHT22;14206;50.202;10.948;2023-12-28T06:29:11;7.70;91.30
26541;DHT22;14206;50.202;10.948;2023-12-28T06:31:38;7.70;91.10
26541;DHT22;14206;50.202;10.948;2023-12-28T06:34:06;7.80;90.90
26541;DHT22;14206;50.202;10.948;2023-12-28T06:36:34;7.90;90.90
26541;DHT22;14206;50.202;10.948;2023-12-28T06:39:02;7.90;91.00
26541;DHT22;14206;50.202;10.948;2023-12-28T06:41:29;8.00;91.50
26541;DHT22;14206;50.202;10.948;2023-12-28T06:43:56;8.10;91.50
26541;DHT22;14206;50.202;10.948;2023-12-28T06:46:22;8.20;91.30
26541;DHT22;14206;50.202;10.948;2023-12-28T06:48:49;8.20;90.40
26541;DHT22;14206;50.202;10.948;2023-12-28T06:51:20;8.20;90.00
26541;DHT22;14206;50.202;10.948;2023-12-28T06:53:49;8.20;90.00
26541;DHT22;14206;50.202;10.948;2023-12-28T06:56:17;8.20;89.90
26541;DHT22;14206;50.202;10.948;2023-12-28T06:58:44;8.20;89.80
26541;DHT22;14206;50.202;10.948;2023-12-28T07:01:11;8.20;90.40
26541;DHT22;14206;50.202;10.948;2023-12-28T07:03:40;8.20;91.10
26541;DHT22;14206;50.202;10.948;2023-12-28T07:06:07;8.30;90.50
26541;DHT22;14206;50.202;10.948;2023-12-28T07:08:34;8.30;90.40
26541;DHT22;14206;50.202;10.948;2023-12-28T07:11:03;8.30;89.90
26541;DHT22;14206;50.202;10.948;2023-12-28T07:13:31;8.30;90.40
26541;DHT22;14206;50.202;10.948;2023-12-28T07:15:58;8.30;90.30
26541;DHT22;14206;50.202;10.948;2023-12-28T07:18:27;8.30;90.40
26541;DHT22;14206;50.202;10.948;2023-12-28T07:20:55;8.20;90.90
26541;DHT22;14206;50.202;10.948;2023-12-28T07:23:22;8.20;91.80
26541;DHT22;14206;50.202;10.948;2023-12-28T07:25:49;8.20;92.10
26541;DHT22;14206;50.202;10.948;2023-12-28T07:28:16;8.10;92.20
26541;DHT22;14206;50.202;10.948;2023-12-28T07:30:43;8.10;92.00
26541;DHT22;14206;50.202;10.948;2023-12-28T07:33:10;8.10;92.60
26541;DHT22;14206;50.202;10.948;2023-12-28T07:35:37;8.00;92.80
26541;DHT22;14206;50.202;10.948;2023-12-28T07:38:04;8.00;93.20
26541;DHT22;14206;50.202;10.948;2023-12-28T07:40:31;8.00;93.10
26541;DHT22;14206;50.202;10.948;2023-12-28T07:42:58;8.00;92.70
26541;DHT22;14206;50.202;10.948;2023-12-28T07:45:25;8.10;92.30
26541;DHT22;14206;50.202;10.948;2023-12-28T07:47:53;8.10;92.00
26541;DHT22;14206;50.202;10.948;2023-12-28T07:50:20;8.20;92.80
26541;DHT22;14206;50.202;10.948;2023-12-28T07:52:48;8.20;92.80
26541;DHT22;14206;50.202;10.948;2023-12-28T07:55:15;8.20;93.10
26541;DHT22;14206;50.202;10.948;2023-12-28T07:57:43;8.20;92.70
26541;DHT22;14206;50.202;10.948;2023-12-28T08:00:10;8.20;93.20
26541;DHT22;14206;50.202;10.948;2023-12-28T08:02:38;8.20;93.30
26541;DHT22;14206;50.202;10.948;2023-12-28T08:05:05;8.20;93.40
26541;DHT22;14206;50.202;10.948;2023-12-28T08:07:32;8.20;93.50
26541;DHT22;14206;50.202;10.948;2023-12-28T08:10:00;8.20;93.60
26541;DHT22;14206;50.202;10.948;2023-12-28T08:12:27;8.20;93.30
26541;DHT22;14206;50.202;10.948;2023-12-28T08:14:55;8.20;93.40
26541;DHT22;14206;50.202;10.948;2023-12-28T08:17:22;8.30;93.30
26541;DHT22;14206;50.202;10.948;2023-12-28T08:19:49;8.30;93.80
26541;DHT22;14206;50.202;10.948;2023-12-28T08:22:16;8.30;93.60
26541;DHT22;14206;50.202;10.948;2023-12-28T08:24:43;8.30;93.40
26541;DHT22;14206;50.202;10.948;2023-12-28T08:27:10;8.40;93.90
26541;DHT22;14206;50.202;10.948;2023-12-28T08:29:37;8.40;94.30
26541;DHT22;14206;50.202;10.948;2023-12-28T08:32:04;8.50;94.40
26541;DHT22;14206;50.202;10.948;2023-12-28T08:34:31;8.50;94.40
26541;DHT22;14206;50.202;10.948;2023-12-28T08:36:59;8.60;94.70
26541;DHT22;14206;50.202;10.948;2023-12-28T08:39:26;8.70;94.80
26541;DHT22;14206;50.202;10.948;2023-12-28T08:41:53;8.80;95.10
26541;DHT22;14206;50.202;10.948;2023-12-28T08:44:20;8.90;96.00
26541;DHT22;14206;50.202;10.948;2023-12-28T08:46:47;9.00;95.80
26541;DHT22;14206;50.202;10.948;2023-12-28T08:49:14;9.00;96.10
26541;DHT22;14206;50.202;10.948;2023-12-28T08:51:42;9.10;96.30
26541;DHT22;14206;50.202;10.948;2023-12-28T08:54:11;9.20;96.60
26541;DHT22;14206;50.202;10.948;2023-12-28T08:56:38;9.30;96.60
26541;DHT22;14206;50.202;10.948;2023-12-28T08:59:04;9.30;96.60
26541;DHT22;14206;50.202;10.948;2023-12-28T09:01:32;9.40;96.60
26541;DHT22;14206;50.202;10.948;2023-12-28T09:03:59;9.50;96.60
26541;DHT22;14206;50.202;10.948;2023-12-28T09:06:28;9.60;96.60
26541;DHT22;14206;50.202;10.948;2023-12-28T09:08:55;9.60;96.60
26541;DHT22;14206;50.202;10.948;2023-12-28T09:11:23;9.70;96.60
26541;DHT22;14206;50.202;10.948;2023-12-28T09:13:50;9.70;96.60
26541;DHT22;14206;50.202;10.948;2023-12-28T09:16:17;9.80;96.60
26541;DHT22;14206;50.202;10.948;2023-12-28T09:18:44;9.90;96.60
26541;DHT22;14206;50.202;10.948;2023-12-28T09:21:11;9.90;96.60
26541;DHT22;14206;50.202;10.948;2023-12-28T09:23:38;9.90;96.60
26541;DHT22;14206;50.202;10.948;2023-12-28T09:26:07;10.00;96.60
26541;DHT22;14206;50.202;10.948;2023-12-28T09:28:34;10.10;96.60
26541;DHT22;14206;50.202;10.948;2023-12-28T09:31:02;10.10;96.60
26541;DHT22;14206;50.202;10.948;2023-12-28T09:33:30;10.10;96.60
26541;DHT22;14206;50.202;10.948;2023-12-28T09:35:57;10.10;96.60
26541;DHT22;14206;50.202;10.948;2023-12-28T09:38:24;10.20;96.60
26541;DHT22;14206;50.202;10.948;2023-12-28T09:40:54;10.20;96.60
26541;DHT22;14206;50.202;10.948;2023-12-28T09:43:26;10.30;96.60
26541;DHT22;14206;50.202;10.948;2023-12-28T09:45:53;10.30;96.60
26541;DHT22;14206;50.202;10.948;2023-12-28T09:48:24;10.30;96.60
26541;DHT22;14206;50.202;10.948;2023-12-28T09:50:51;10.30;96.60
26541;DHT22;14206;50.202;10.948;2023-12-28T09:53:25;10.30;96.60
26541;DHT22;14206;50.202;10.948;2023-12-28T09:55:53;10.30;96.60
26541;DHT22;14206;50.202;10.948;2023-12-28T09:58:21;10.30;96.60
26541;DHT22;14206;50.202;10.948;2023-12-28T10:00:50;10.30;96.60
26541;DHT22;14206;50.202;10.948;2023-12-28T10:03:17;10.30;96.60
26541;DHT22;14206;50.202;10.948;2023-12-28T10:05:46;10.30;96.60
26541;DHT22;14206;50.202;10.948;2023-12-28T10:08:15;10.30;96.60
26541;DHT22;14206;50.202;10.948;2023-12-28T10:10:43;10.30;96.60
26541;DHT22;14206;50.202;10.948;2023-12-28T10:13:17;10.40;96.60
26541;DHT22;14206;50.202;10.948;2023-12-28T10:15:44;10.40;96.60
26541;DHT22;14206;50.202;10.948;2023-12-28T10:18:11;10.50;96.60
26541;DHT22;14206;50.202;10.948;2023-12-28T10:20:38;10.50;96.60
26541;DHT22;14206;50.202;10.948;2023-12-28T10:23:05;10.60;96.60
26541;DHT22;14206;50.202;10.948;2023-12-28T10:25:32;10.60;96.60
26541;DHT22;14206;50.202;10.948;2023-12-28T10:28:04;10.70;96.60
26541;DHT22;14206;50.202;10.948;2023-12-28T10:30:33;10.70;96.60
26541;DHT22;14206;50.202;10.948;2023-12-28T10:33:01;10.80;96.60
26541;DHT22;14206;50.202;10.948;2023-12-28T10:35:29;10.90;96.60
26541;DHT22;14206;50.202;10.948;2023-12-28T10:37:57;11.00;96.60
26541;DHT22;14206;50.202;10.948;2023-12-28T10:40:26;11.10;95.80
26541;DHT22;14206;50.202;10.948;2023-12-28T10:43:01;11.10;95.70
26541;DHT22;14206;50.202;10.948;2023-12-28T10:45:32;11.10;95.90
26541;DHT22;14206;50.202;10.948;2023-12-28T10:48:08;11.10;95.80
26541;DHT22;14206;50.202;10.948;2023-12-28T10:50:48;11.10;95.60
26541;DHT22;14206;50.202;10.948;2023-12-28T11:01:28;11.10;95.40
26541;DHT22;14206;50.202;10.948;2023-12-28T11:04:01;11.10;95.10
26541;DHT22;14206;50.202;10.948;2023-12-28T11:06:31;11.10;95.60
26541;DHT22;14206;50.202;10.948;2023-12-28T11:09:00;11.20;95.60
26541;DHT22;14206;50.202;10.948;2023-12-28T11:11:28;11.20;95.60
26541;DHT22;14206;50.202;10.948;2023-12-28T11:13:56;11.30;95.30
26541;DHT22;14206;50.202;10.948;2023-12-28T11:16:25;11.50;94.90
26541;DHT22;14206;50.202;10.948;2023-12-28T11:18:55;11.50;93.70
26541;DHT22;14206;50.202;10.948;2023-12-28T11:21:23;11.60;94.00
26541;DHT22;14206;50.202;10.948;2023-12-28T11:23:50;11.50;93.90
26541;DHT22;14206;50.202;10.948;2023-12-28T11:26:18;11.50;93.80
26541;DHT22;14206;50.202;10.948;2023-12-28T11:28:45;11.50;93.50
26541;DHT22;14206;50.202;10.948;2023-12-28T11:31:16;11.50;93.90
26541;DHT22;14206;50.202;10.948;2023-12-28T11:33:47;11.50;93.70
26541;DHT22;14206;50.202;10.948;2023-12-28T11:36:32;11.40;94.00
26541;DHT22;14206;50.202;10.948;2023-12-28T11:39:02;11.50;94.30
26541;DHT22;14206;50.202;10.948;2023-12-28T11:41:31;11.50;93.50
26541;DHT22;14206;50.202;10.948;2023-12-28T11:44:05;11.50;93.50
26541;DHT22;14206;50.202;10.948;2023-12-28T11:46:34;11.50;93.70
26541;DHT22;14206;50.202;10.948;2023-12-28T11:49:08;11.50;93.50
26541;DHT22;14206;50.202;10.948;2023-12-28T11:51:38;11.50;93.20
26541;DHT22;14206;50.202;10.948;2023-12-28T11:54:05;11.40;92.80
26541;DHT22;14206;50.202;10.948;2023-12-28T11:56:33;11.40;93.30
26541;DHT22;14206;50.202;10.948;2023-12-28T11:59:00;11.30;92.90
26541;DHT22;14206;50.202;10.948;2023-12-28T12:01:27;11.30;92.50
26541;DHT22;14206;50.202;10.948;2023-12-28T12:03:54;11.30;93.20
26541;DHT22;14206;50.202;10.948;2023-12-28T12:06:21;11.20;93.40
26541;DHT22;14206;50.202;10.948;2023-12-28T12:08:48;11.20;93.00
26541;DHT22;14206;50.202;10.948;2023-12-28T12:11:17;11.20;93.30
26541;DHT22;14206;50.202;10.948;2023-12-28T12:13:45;11.20;93.00
26541;DHT22;14206;50.202;10.948;2023-12-28T12:16:15;11.20;93.30
26541;DHT22;14206;50.202;10.948;2023-12-28T12:18:42;11.20;94.00
26541;DHT22;14206;50.202;10.948;2023-12-28T12:21:10;11.10;94.20
26541;DHT22;14206;50.202;10.948;2023-12-28T12:23:37;11.10;94.70
26541;DHT22;14206;50.202;10.948;2023-12-28T12:26:07;11.00;95.00
26541;DHT22;14206;50.202;10.948;2023-12-28T12:28:34;11.00;95.20
26541;DHT22;14206;50.202;10.948;2023-12-28T12:31:03;11.00;94.50
26541;DHT22;14206;50.202;10.948;2023-12-28T12:33:31;11.00;94.50
26541;DHT22;14206;50.202;10.948;2023-12-28T12:36:00;11.00;94.30
26541;DHT22;14206;50.202;10.948;2023-12-28T12:38:27;11.00;94.70
26541;DHT22;14206;50.202;10.948;2023-12-28T12:40:54;10.90;94.50
26541;DHT22;14206;50.202;10.948;2023-12-28T12:43:21;10.90;94.90
26541;DHT22;14206;50.202;10.948;2023-12-28T12:45:48;10.90;94.80
26541;DHT22;14206;50.202;10.948;2023-12-28T12:48:16;10.90;95.20
26541;DHT22;14206;50.202;10.948;2023-12-28T12:50:44;10.90;94.60
26541;DHT22;14206;50.202;10.948;2023-12-28T12:53:11;10.90;94.30
26541;DHT22;14206;50.202;10.948;2023-12-28T12:55:38;10.90;94.30
26541;DHT22;14206;50.202;10.948;2023-12-28T12:58:05;10.90;94.80
26541;DHT22;14206;50.202;10.948;2023-12-28T13:00:32;10.80;94.30
26541;DHT22;14206;50.202;10.948;2023-12-28T13:03:00;10.80;93.80
26541;DHT22;14206;50.202;10.948;2023-12-28T13:05:28;10.80;94.10
26541;DHT22;14206;50.202;10.948;2023-12-28T13:07:57;10.70;93.60
26541;DHT22;14206;50.202;10.948;2023-12-28T13:10:24;10.70;94.00
26541;DHT22;14206;50.202;10.948;2023-12-28T13:12:50;10.70;94.30
26541;DHT22;14206;50.202;10.948;2023-12-28T13:15:17;10.60;94.40
26541;DHT22;14206;50.202;10.948;2023-12-28T13:17:44;10.70;94.40
26541;DHT22;14206;50.202;10.948;2023-12-28T13:20:11;10.70;94.50
26541;DHT22;14206;50.202;10.948;2023-12-28T13:22:38;10.70;94.60
26541;DHT22;14206;50.202;10.948;2023-12-28T13:25:06;10.70;94.30
26541;DHT22;14206;50.202;10.948;2023-12-28T13:27:33;10.70;94.90
26541;DHT22;14206;50.202;10.948;2023-12-28T13:30:00;10.70;95.20
26541;DHT22;14206;50.202;10.948;2023-12-28T13:32:27;10.70;94.90
26541;DHT22;14206;50.202;10.948;2023-12-28T13:34:54;10.80;95.10
26541;DHT22;14206;50.202;10.948;2023-12-28T13:37:24;10.80;95.00
26541;DHT22;14206;50.202;10.948;2023-12-28T13:39:52;10.70;95.20
26541;DHT22;14206;50.202;10.948;2023-12-28T13:42:18;10.60;95.40
26541;DHT22;14206;50.202;10.948;2023-12-28T13:44:45;10.50;95.80
26541;DHT22;14206;50.202;10.948;2023-12-28T13:47:12;10.40;96.20
26541;DHT22;14206;50.202;10.948;2023-12-28T13:49:39;10.30;96.30
26541;DHT22;14206;50.202;10.948;2023-12-28T13:52:06;10.20;96.60
26541;DHT22;14206;50.202;10.948;2023-12-28T13:54:33;10.10;96.60
26541;DHT22;14206;50.202;10.948;2023-12-28T13:57:00;10.10;96.60
26541;DHT22;14206;50.202;10.948;2023-12-28T13:59:27;10.00;96.60
26541;DHT22;14206;50.202;10.948;2023-12-28T14:01:54;9.90;96.60
26541;DHT22;14206;50.202;10.948;2023-12-28T14:04:21;9.90;96.60
26541;DHT22;14206;50.202;10.948;2023-12-28T14:06:48;9.90;96.60
26541;DHT22;14206;50.202;10.948;2023-12-28T14:09:15;10.00;96.60
26541;DHT22;14206;50.202;10.948;2023-12-28T14:11:47;10.00;96.60
26541;DHT22;14206;50.202;10.948;2023-12-28T14:14:14;10.00;96.60
26541;DHT22;14206;50.202;10.948;2023-12-28T14:16:41;10.00;96.60
26541;DHT22;14206;50.202;10.948;2023-12-28T14:19:12;10.10;96.60
26541;DHT22;14206;50.202;10.948;2023-12-28T14:21:39;10.10;96.60
26541;DHT22;14206;50.202;10.948;2023-12-28T14:24:07;10.10;96.60
26541;DHT22;14206;50.202;10.948;2023-12-28T14:26:35;10.10;96.60
26541;DHT22;14206;50.202;10.948;2023-12-28T14:29:06;10.10;96.60
26541;DHT22;14206;50.202;10.948;2023-12-28T14:31:34;10.00;96.60
26541;DHT22;14206;50.202;10.948;2023-12-28T14:34:02;10.00;96.60
26541;DHT22;14206;50.202;10.948;2023-12-28T14:36:35;10.00;96.60
26541;DHT22;14206;50.202;10.948;2023-12-28T14:39:05;9.90;96.60
26541;DHT22;14206;50.202;10.948;2023-12-28T14:41:36;9.90;96.60
26541;DHT22;14206;50.202;10.948;2023-12-28T14:44:07;9.80;96.60
26541;DHT22;14206;50.202;10.948;2023-12-28T14:46:34;9.80;96.60
26541;DHT22;14206;50.202;10.948;2023-12-28T14:49:01;9.70;96.60
26541;DHT22;14206;50.202;10.948;2023-12-28T14:51:32;9.80;96.60
26541;DHT22;14206;50.202;10.948;2023-12-28T14:53:59;9.80;96.60
26541;DHT22;14206;50.202;10.948;2023-12-28T14:56:26;9.90;96.60
26541;DHT22;14206;50.202;10.948;2023-12-28T14:59:02;9.90;96.60
26541;DHT22;14206;50.202;10.948;2023-12-28T15:01:29;9.90;96.60
26541;DHT22;14206;50.202;10.948;2023-12-28T15:03:56;10.00;96.60
26541;DHT22;14206;50.202;10.948;2023-12-28T15:06:23;10.10;96.60
26541;DHT22;14206;50.202;10.948;2023-12-28T15:08:50;10.10;96.60
26541;DHT22;14206;50.202;10.948;2023-12-28T15:11:17;10.10;96.60
26541;DHT22;14206;50.202;10.948;2023-12-28T15:13:46;10.10;96.60
26541;DHT22;14206;50.202;10.948;2023-12-28T15:16:14;10.10;96.60
26541;DHT22;14206;50.202;10.948;2023-12-28T15:18:41;10.00;96.60
26541;DHT22;14206;50.202;10.948;2023-12-28T15:21:08;10.00;96.60
26541;DHT22;14206;50.202;10.948;2023-12-28T15:23:36;10.00;96.60
26541;DHT22;14206;50.202;10.948;2023-12-28T15:26:03;10.00;96.60
26541;DHT22;14206;50.202;10.948;2023-12-28T15:28:30;10.00;96.60
26541;DHT22;14206;50.202;10.948;2023-12-28T15:31:00;10.00;96.60
26541;DHT22;14206;50.202;10.948;2023-12-28T15:33:28;10.00;96.60
26541;DHT22;14206;50.202;10.948;2023-12-28T15:35:55;9.90;96.60
26541;DHT22;14206;50.202;10.948;2023-12-28T15:38:21;9.90;96.60
26541;DHT22;14206;50.202;10.948;2023-12-28T15:40:48;9.90;96.60